sensor_id;sensor_type;location;lat;lon;timestamp;P1;durP1;ratioP1;P2;durP2;ratioP2
43363;SDS011;40636;52.424;-1.948;2022-09-09T00:04:37;11.40;;;4.22;;
43363;SDS011;40636;52.424;-1.948;2022-09-09T00:07:08;9.55;;;3.95;;
43363;SDS011;40636;52.424;-1.948;2022-09-09T00:16:02;15.30;;;5.78;;
43363;SDS011;40636;52.424;-1.948;2022-09-09T00:18:28;6.45;;;3.72;;
43363;SDS011;40636;52.424;-1.948;2022-09-09T00:21:17;8.93;;;4.18;;
43363;SDS011;40636;52.424;-1.948;2022-09-09T00:23:47;10.50;;;4.53;;
43363;SDS011;40636;52.424;-1.948;2022-09-09T00:26:52;9.90;;;4.55;;
43363;SDS011;40636;52.424;-1.948;2022-09-09T00:31:48;14.18;;;5.10;;
43363;SDS011;40636;52.424;-1.948;2022-09-09T00:34:18;10.15;;;5.10;;
43363;SDS011;40636;52.424;-1.948;2022-09-09T00:36:48;8.60;;;4.30;;
43363;SDS011;40636;52.424;-1.948;2022-09-09T00:42:19;13.23;;;5.22;;
43363;SDS011;40636;52.424;-1.948;2022-09-09T00:47:25;10.57;;;4.38;;
43363;SDS011;40636;52.424;-1.948;2022-09-09T01:01:33;9.68;;;5.20;;
43363;SDS011;40636;52.424;-1.948;2022-09-09T01:04:01;8.48;;;4.72;;
43363;SDS011;40636;52.424;-1.948;2022-09-09T01:06:37;9.35;;;4.43;;
43363;SDS011;40636;52.424;-1.948;2022-09-09T01:09:18;8.80;;;5.05;;
43363;SDS011;40636;52.424;-1.948;2022-09-09T01:14:51;7.50;;;4.82;;
43363;SDS011;40636;52.424;-1.948;2022-09-09T01:20:25;8.35;;;5.05;;
43363;SDS011;40636;52.424;-1.948;2022-09-09T01:28:11;6.82;;;4.28;;
43363;SDS011;40636;52.424;-1.948;2022-09-09T01:30:42;7.25;;;4.18;;
43363;SDS011;40636;52.424;-1.948;2022-09-09T01:33:10;6.70;;;3.90;;
43363;SDS011;40636;52.424;-1.948;2022-09-09T01:35:57;8.00;;;4.13;;
43363;SDS011;40636;52.424;-1.948;2022-09-09T01:38:28;12.45;;;4.95;;
43363;SDS011;40636;52.424;-1.948;2022-09-09T01:40:57;8.73;;;4.00;;
43363;SDS011;40636;52.424;-1.948;2022-09-09T01:43:24;13.18;;;5.28;;
43363;SDS011;40636;52.424;-1.948;2022-09-09T01:45:53;8.75;;;3.85;;
43363;SDS011;40636;52.424;-1.948;2022-09-09T01:48:22;9.35;;;4.65;;
43363;SDS011;40636;52.424;-1.948;2022-09-09T01:50:51;7.65;;;4.63;;
43363;SDS011;40636;52.424;-1.948;2022-09-09T01:53:18;7.93;;;4.53;;
43363;SDS011;40636;52.424;-1.948;2022-09-09T01:55:54;10.98;;;4.82;;
43363;SDS011;40636;52.424;-1.948;2022-09-09T01:58:31;10.05;;;6.00;;
43363;SDS011;40636;52.424;-1.948;2022-09-09T02:03:36;18.42;;;7.05;;
43363;SDS011;40636;52.424;-1.948;2022-09-09T02:08:57;10.70;;;5.50;;
43363;SDS011;40636;52.424;-1.948;2022-09-09T02:11:27;21.05;;;8.32;;
43363;SDS011;40636;52.424;-1.948;2022-09-09T02:14:02;13.65;;;6.55;;
43363;SDS011;40636;52.424;-1.948;2022-09-09T02:16:50;29.02;;;10.30;;
43363;SDS011;40636;52.424;-1.948;2022-09-09T02:19:25;22.48;;;11.10;;
43363;SDS011;40636;52.424;-1.948;2022-09-09T02:21:57;25.05;;;10.70;;
43363;SDS011;40636;52.424;-1.948;2022-09-09T02:24:26;24.13;;;11.82;;
43363;SDS011;40636;52.424;-1.948;2022-09-09T02:26:55;52.97;;;14.43;;
43363;SDS011;40636;52.424;-1.948;2022-09-09T02:29:27;24.90;;;12.18;;
43363;SDS011;40636;52.424;-1.948;2022-09-09T02:31:59;30.65;;;13.95;;
43363;SDS011;40636;52.424;-1.948;2022-09-09T02:34:30;28.55;;;12.95;;
43363;SDS011;40636;52.424;-1.948;2022-09-09T02:37:02;28.65;;;13.05;;
43363;SDS011;40636;52.424;-1.948;2022-09-09T02:39:30;25.38;;;12.23;;
43363;SDS011;40636;52.424;-1.948;2022-09-09T02:41:57;32.83;;;13.60;;
43363;SDS011;40636;52.424;-1.948;2022-09-09T02:44:24;30.92;;;12.43;;
43363;SDS011;40636;52.424;-1.948;2022-09-09T02:55:06;26.10;;;12.15;;
43363;SDS011;40636;52.424;-1.948;2022-09-09T02:57:44;30.13;;;12.57;;
43363;SDS011;40636;52.424;-1.948;2022-09-09T03:00:13;32.83;;;12.63;;
43363;SDS011;40636;52.424;-1.948;2022-09-09T03:02:41;28.13;;;12.00;;
43363;SDS011;40636;52.424;-1.948;2022-09-09T03:05:08;29.80;;;12.48;;
43363;SDS011;40636;52.424;-1.948;2022-09-09T03:07:36;24.70;;;11.23;;
43363;SDS011;40636;52.424;-1.948;2022-09-09T03:10:03;28.20;;;13.63;;
43363;SDS011;40636;52.424;-1.948;2022-09-09T03:12:31;24.58;;;12.45;;
43363;SDS011;40636;52.424;-1.948;2022-09-09T03:14:59;27.70;;;13.05;;
43363;SDS011;40636;52.424;-1.948;2022-09-09T03:17:26;24.27;;;12.07;;
43363;SDS011;40636;52.424;-1.948;2022-09-09T03:19:54;29.83;;;12.15;;
43363;SDS011;40636;52.424;-1.948;2022-09-09T03:22:21;42.03;;;13.57;;
43363;SDS011;40636;52.424;-1.948;2022-09-09T03:24:48;24.58;;;12.45;;
43363;SDS011;40636;52.424;-1.948;2022-09-09T03:27:14;29.40;;;14.55;;
43363;SDS011;40636;52.424;-1.948;2022-09-09T03:29:44;31.77;;;13.23;;
43363;SDS011;40636;52.424;-1.948;2022-09-09T03:32:12;29.17;;;13.35;;
43363;SDS011;40636;52.424;-1.948;2022-09-09T03:34:40;34.47;;;14.50;;
43363;SDS011;40636;52.424;-1.948;2022-09-09T03:37:07;31.80;;;14.45;;
43363;SDS011;40636;52.424;-1.948;2022-09-09T03:39:33;28.88;;;12.05;;
43363;SDS011;40636;52.424;-1.948;2022-09-09T03:42:01;31.05;;;13.27;;
43363;SDS011;40636;52.424;-1.948;2022-09-09T03:44:31;26.45;;;13.30;;
43363;SDS011;40636;52.424;-1.948;2022-09-09T03:46:58;29.88;;;12.57;;
43363;SDS011;40636;52.424;-1.948;2022-09-09T03:49:28;24.90;;;11.55;;
43363;SDS011;40636;52.424;-1.948;2022-09-09T03:51:55;31.48;;;12.32;;
43363;SDS011;40636;52.424;-1.948;2022-09-09T03:54:23;27.33;;;12.30;;
43363;SDS011;40636;52.424;-1.948;2022-09-09T03:56:51;28.02;;;12.63;;
43363;SDS011;40636;52.424;-1.948;2022-09-09T03:59:17;31.02;;;14.88;;
43363;SDS011;40636;52.424;-1.948;2022-09-09T04:01:44;31.52;;;12.80;;
43363;SDS011;40636;52.424;-1.948;2022-09-09T04:04:11;33.53;;;12.85;;
43363;SDS011;40636;52.424;-1.948;2022-09-09T04:06:38;27.65;;;13.32;;
43363;SDS011;40636;52.424;-1.948;2022-09-09T04:09:05;27.15;;;13.68;;
43363;SDS011;40636;52.424;-1.948;2022-09-09T04:11:32;29.60;;;13.68;;
43363;SDS011;40636;52.424;-1.948;2022-09-09T04:14:00;23.42;;;12.88;;
43363;SDS011;40636;52.424;-1.948;2022-09-09T04:16:27;27.77;;;13.90;;
43363;SDS011;40636;52.424;-1.948;2022-09-09T04:18:54;25.02;;;12.95;;
43363;SDS011;40636;52.424;-1.948;2022-09-09T04:21:22;28.92;;;13.73;;
43363;SDS011;40636;52.424;-1.948;2022-09-09T04:23:49;30.00;;;13.05;;
43363;SDS011;40636;52.424;-1.948;2022-09-09T04:26:16;25.33;;;12.43;;
43363;SDS011;40636;52.424;-1.948;2022-09-09T04:28:42;25.63;;;12.50;;
43363;SDS011;40636;52.424;-1.948;2022-09-09T04:34:14;26.25;;;13.02;;
43363;SDS011;40636;52.424;-1.948;2022-09-09T04:36:41;26.30;;;13.23;;
43363;SDS011;40636;52.424;-1.948;2022-09-09T04:39:08;31.80;;;14.95;;
43363;SDS011;40636;52.424;-1.948;2022-09-09T04:41:35;25.33;;;12.85;;
43363;SDS011;40636;52.424;-1.948;2022-09-09T04:44:03;28.45;;;14.52;;
43363;SDS011;40636;52.424;-1.948;2022-09-09T04:46:30;30.95;;;14.65;;
43363;SDS011;40636;52.424;-1.948;2022-09-09T04:48:57;27.73;;;13.23;;
43363;SDS011;40636;52.424;-1.948;2022-09-09T04:51:23;38.03;;;16.75;;
43363;SDS011;40636;52.424;-1.948;2022-09-09T04:53:51;26.92;;;13.57;;
43363;SDS011;40636;52.424;-1.948;2022-09-09T04:56:23;34.80;;;14.48;;
43363;SDS011;40636;52.424;-1.948;2022-09-09T04:58:53;30.10;;;14.10;;
43363;SDS011;40636;52.424;-1.948;2022-09-09T05:01:21;27.83;;;14.52;;
43363;SDS011;40636;52.424;-1.948;2022-09-09T05:03:50;33.35;;;14.63;;
43363;SDS011;40636;52.424;-1.948;2022-09-09T05:06:20;33.70;;;17.27;;
43363;SDS011;40636;52.424;-1.948;2022-09-09T05:08:47;36.53;;;16.42;;
43363;SDS011;40636;52.424;-1.948;2022-09-09T05:11:16;40.40;;;17.75;;
43363;SDS011;40636;52.424;-1.948;2022-09-09T05:13:45;37.33;;;17.88;;
43363;SDS011;40636;52.424;-1.948;2022-09-09T05:16:13;32.70;;;16.08;;
43363;SDS011;40636;52.424;-1.948;2022-09-09T05:18:40;33.72;;;18.48;;
43363;SDS011;40636;52.424;-1.948;2022-09-09T05:21:09;33.42;;;17.42;;
43363;SDS011;40636;52.424;-1.948;2022-09-09T05:23:37;37.38;;;18.17;;
43363;SDS011;40636;52.424;-1.948;2022-09-09T05:26:05;38.90;;;17.55;;
43363;SDS011;40636;52.424;-1.948;2022-09-09T05:28:52;39.90;;;17.15;;
43363;SDS011;40636;52.424;-1.948;2022-09-09T05:31:23;38.30;;;17.98;;
43363;SDS011;40636;52.424;-1.948;2022-09-09T05:33:54;44.00;;;18.42;;
43363;SDS011;40636;52.424;-1.948;2022-09-09T05:36:21;43.05;;;19.23;;
43363;SDS011;40636;52.424;-1.948;2022-09-09T05:38:49;36.28;;;17.45;;
43363;SDS011;40636;52.424;-1.948;2022-09-09T05:41:17;41.45;;;19.15;;
43363;SDS011;40636;52.424;-1.948;2022-09-09T05:43:46;36.67;;;19.00;;
43363;SDS011;40636;52.424;-1.948;2022-09-09T05:46:16;40.30;;;18.52;;
43363;SDS011;40636;52.424;-1.948;2022-09-09T05:48:45;43.72;;;18.15;;
43363;SDS011;40636;52.424;-1.948;2022-09-09T05:51:14;35.17;;;15.95;;
43363;SDS011;40636;52.424;-1.948;2022-09-09T05:53:43;38.03;;;18.83;;
43363;SDS011;40636;52.424;-1.948;2022-09-09T05:56:12;43.92;;;17.90;;
43363;SDS011;40636;52.424;-1.948;2022-09-09T05:58:44;37.92;;;15.90;;
43363;SDS011;40636;52.424;-1.948;2022-09-09T06:01:14;37.97;;;16.23;;
43363;SDS011;40636;52.424;-1.948;2022-09-09T06:03:43;34.47;;;16.58;;
43363;SDS011;40636;52.424;-1.948;2022-09-09T06:06:11;33.85;;;17.48;;
43363;SDS011;40636;52.424;-1.948;2022-09-09T06:11:41;41.75;;;18.60;;
43363;SDS011;40636;52.424;-1.948;2022-09-09T06:14:09;32.03;;;15.77;;
43363;SDS011;40636;52.424;-1.948;2022-09-09T06:16:36;30.75;;;15.48;;
43363;SDS011;40636;52.424;-1.948;2022-09-09T06:19:04;37.80;;;19.02;;
43363;SDS011;40636;52.424;-1.948;2022-09-09T06:21:32;37.25;;;18.17;;
43363;SDS011;40636;52.424;-1.948;2022-09-09T06:24:03;34.40;;;17.20;;
43363;SDS011;40636;52.424;-1.948;2022-09-09T06:26:32;39.13;;;17.38;;
43363;SDS011;40636;52.424;-1.948;2022-09-09T06:29:00;38.53;;;16.48;;
43363;SDS011;40636;52.424;-1.948;2022-09-09T06:31:31;34.83;;;16.10;;
43363;SDS011;40636;52.424;-1.948;2022-09-09T06:34:00;33.40;;;15.85;;
43363;SDS011;40636;52.424;-1.948;2022-09-09T06:36:29;39.05;;;17.52;;
43363;SDS011;40636;52.424;-1.948;2022-09-09T06:38:58;40.47;;;16.83;;
43363;SDS011;40636;52.424;-1.948;2022-09-09T06:41:44;36.60;;;16.77;;
43363;SDS011;40636;52.424;-1.948;2022-09-09T06:44:18;35.03;;;16.58;;
43363;SDS011;40636;52.424;-1.948;2022-09-09T06:46:45;38.33;;;17.10;;
43363;SDS011;40636;52.424;-1.948;2022-09-09T06:49:14;34.55;;;17.88;;
43363;SDS011;40636;52.424;-1.948;2022-09-09T06:51:41;35.05;;;17.95;;
43363;SDS011;40636;52.424;-1.948;2022-09-09T06:54:10;34.47;;;15.75;;
43363;SDS011;40636;52.424;-1.948;2022-09-09T06:56:38;39.63;;;17.13;;
43363;SDS011;40636;52.424;-1.948;2022-09-09T06:59:08;29.67;;;14.48;;
43363;SDS011;40636;52.424;-1.948;2022-09-09T07:01:36;29.65;;;15.27;;
43363;SDS011;40636;52.424;-1.948;2022-09-09T07:04:10;28.02;;;14.50;;
43363;SDS011;40636;52.424;-1.948;2022-09-09T07:06:38;30.83;;;14.20;;
43363;SDS011;40636;52.424;-1.948;2022-09-09T07:09:07;32.88;;;13.82;;
43363;SDS011;40636;52.424;-1.948;2022-09-09T07:11:40;28.95;;;14.35;;
43363;SDS011;40636;52.424;-1.948;2022-09-09T07:14:15;24.80;;;14.30;;
43363;SDS011;40636;52.424;-1.948;2022-09-09T07:16:42;29.88;;;15.00;;
43363;SDS011;40636;52.424;-1.948;2022-09-09T07:19:10;34.10;;;14.35;;
43363;SDS011;40636;52.424;-1.948;2022-09-09T07:21:37;25.20;;;14.05;;
43363;SDS011;40636;52.424;-1.948;2022-09-09T07:24:06;34.05;;;14.50;;
43363;SDS011;40636;52.424;-1.948;2022-09-09T07:26:36;33.53;;;15.30;;
43363;SDS011;40636;52.424;-1.948;2022-09-09T07:29:05;29.70;;;13.32;;
43363;SDS011;40636;52.424;-1.948;2022-09-09T07:31:33;30.60;;;15.25;;
43363;SDS011;40636;52.424;-1.948;2022-09-09T07:34:03;29.33;;;13.75;;
43363;SDS011;40636;52.424;-1.948;2022-09-09T07:36:32;30.73;;;14.23;;
43363;SDS011;40636;52.424;-1.948;2022-09-09T07:39:02;25.60;;;14.10;;
43363;SDS011;40636;52.424;-1.948;2022-09-09T07:41:40;31.73;;;14.85;;
43363;SDS011;40636;52.424;-1.948;2022-09-09T07:44:19;24.45;;;13.38;;
43363;SDS011;40636;52.424;-1.948;2022-09-09T07:52:41;25.30;;;14.27;;
43363;SDS011;40636;52.424;-1.948;2022-09-09T07:55:08;22.08;;;12.00;;
43363;SDS011;40636;52.424;-1.948;2022-09-09T07:57:35;26.55;;;13.43;;
43363;SDS011;40636;52.424;-1.948;2022-09-09T08:00:03;30.23;;;12.98;;
43363;SDS011;40636;52.424;-1.948;2022-09-09T08:02:30;25.00;;;12.60;;
43363;SDS011;40636;52.424;-1.948;2022-09-09T08:04:57;18.83;;;11.65;;
43363;SDS011;40636;52.424;-1.948;2022-09-09T08:07:23;20.58;;;10.68;;
43363;SDS011;40636;52.424;-1.948;2022-09-09T08:09:50;16.38;;;8.63;;
43363;SDS011;40636;52.424;-1.948;2022-09-09T08:12:17;16.65;;;8.40;;
43363;SDS011;40636;52.424;-1.948;2022-09-09T08:14:44;14.32;;;8.52;;
43363;SDS011;40636;52.424;-1.948;2022-09-09T08:17:11;18.40;;;8.98;;
43363;SDS011;40636;52.424;-1.948;2022-09-09T08:19:37;14.30;;;9.18;;
43363;SDS011;40636;52.424;-1.948;2022-09-09T08:22:04;15.90;;;8.27;;
43363;SDS011;40636;52.424;-1.948;2022-09-09T08:24:31;17.05;;;8.43;;
43363;SDS011;40636;52.424;-1.948;2022-09-09T08:26:58;19.98;;;8.73;;
43363;SDS011;40636;52.424;-1.948;2022-09-09T08:29:25;15.38;;;7.65;;
43363;SDS011;40636;52.424;-1.948;2022-09-09T08:31:53;12.50;;;7.05;;
43363;SDS011;40636;52.424;-1.948;2022-09-09T08:34:24;13.32;;;7.35;;
43363;SDS011;40636;52.424;-1.948;2022-09-09T08:36:53;16.88;;;8.32;;
43363;SDS011;40636;52.424;-1.948;2022-09-09T08:39:21;14.30;;;7.78;;
43363;SDS011;40636;52.424;-1.948;2022-09-09T08:44:46;17.42;;;9.75;;
43363;SDS011;40636;52.424;-1.948;2022-09-09T08:48:08;12.70;;;7.97;;
43363;SDS011;40636;52.424;-1.948;2022-09-09T08:50:59;13.80;;;8.18;;
43363;SDS011;40636;52.424;-1.948;2022-09-09T08:53:29;13.60;;;6.97;;
43363;SDS011;40636;52.424;-1.948;2022-09-09T08:56:08;16.27;;;7.72;;
43363;SDS011;40636;52.424;-1.948;2022-09-09T08:58:46;13.20;;;7.60;;
43363;SDS011;40636;52.424;-1.948;2022-09-09T09:04:00;12.65;;;6.55;;
43363;SDS011;40636;52.424;-1.948;2022-09-09T09:11:58;13.63;;;7.22;;
43363;SDS011;40636;52.424;-1.948;2022-09-09T09:14:28;13.82;;;6.97;;
43363;SDS011;40636;52.424;-1.948;2022-09-09T09:17:06;11.02;;;6.00;;
43363;SDS011;40636;52.424;-1.948;2022-09-09T09:19:39;11.75;;;6.60;;
43363;SDS011;40636;52.424;-1.948;2022-09-09T09:25:11;9.88;;;6.28;;
43363;SDS011;40636;52.424;-1.948;2022-09-09T09:33:21;10.70;;;5.97;;
43363;SDS011;40636;52.424;-1.948;2022-09-09T09:35:50;10.45;;;5.57;;
43363;SDS011;40636;52.424;-1.948;2022-09-09T09:38:18;10.25;;;5.38;;
43363;SDS011;40636;52.424;-1.948;2022-09-09T09:41:09;11.25;;;5.78;;
43363;SDS011;40636;52.424;-1.948;2022-09-09T09:43:37;12.15;;;5.35;;
43363;SDS011;40636;52.424;-1.948;2022-09-09T09:46:18;10.00;;;5.75;;
43363;SDS011;40636;52.424;-1.948;2022-09-09T09:48:56;9.63;;;4.70;;
43363;SDS011;40636;52.424;-1.948;2022-09-09T09:51:32;13.70;;;5.85;;
43363;SDS011;40636;52.424;-1.948;2022-09-09T09:54:42;14.05;;;5.20;;
43363;SDS011;40636;52.424;-1.948;2022-09-09T09:56:55;10.18;;;6.22;;
43363;SDS011;40636;52.424;-1.948;2022-09-09T10:02:14;17.75;;;7.38;;
43363;SDS011;40636;52.424;-1.948;2022-09-09T10:07:30;13.82;;;9.02;;
43363;SDS011;40636;52.424;-1.948;2022-09-09T10:10:01;15.10;;;7.65;;
43363;SDS011;40636;52.424;-1.948;2022-09-09T10:26:38;11.98;;;7.88;;
43363;SDS011;40636;52.424;-1.948;2022-09-09T10:32:28;11.07;;;6.65;;
43363;SDS011;40636;52.424;-1.948;2022-09-09T10:43:41;12.25;;;6.35;;
43363;SDS011;40636;52.424;-1.948;2022-09-09T10:46:31;13.00;;;6.47;;
43363;SDS011;40636;52.424;-1.948;2022-09-09T10:52:17;10.40;;;5.82;;
43363;SDS011;40636;52.424;-1.948;2022-09-09T10:57:46;9.75;;;5.88;;
43363;SDS011;40636;52.424;-1.948;2022-09-09T11:00:18;13.10;;;5.72;;
43363;SDS011;40636;52.424;-1.948;2022-09-09T11:03:02;12.30;;;6.35;;
43363;SDS011;40636;52.424;-1.948;2022-09-09T11:05:31;13.20;;;6.45;;
43363;SDS011;40636;52.424;-1.948;2022-09-09T11:10:58;11.60;;;6.13;;
43363;SDS011;40636;52.424;-1.948;2022-09-09T11:16:20;10.55;;;6.38;;
43363;SDS011;40636;52.424;-1.948;2022-09-09T11:19:13;14.88;;;5.90;;
43363;SDS011;40636;52.424;-1.948;2022-09-09T11:21:51;10.38;;;5.60;;
43363;SDS011;40636;52.424;-1.948;2022-09-09T11:24:23;14.15;;;6.88;;
43363;SDS011;40636;52.424;-1.948;2022-09-09T11:32:48;10.77;;;5.75;;
43363;SDS011;40636;52.424;-1.948;2022-09-09T11:38:26;8.60;;;4.95;;
43363;SDS011;40636;52.424;-1.948;2022-09-09T11:41:07;10.20;;;4.95;;
43363;SDS011;40636;52.424;-1.948;2022-09-09T11:43:40;9.68;;;5.00;;
43363;SDS011;40636;52.424;-1.948;2022-09-09T11:46:10;9.77;;;5.57;;
43363;SDS011;40636;52.424;-1.948;2022-09-09T11:48:39;9.32;;;5.47;;
43363;SDS011;40636;52.424;-1.948;2022-09-09T11:51:13;10.10;;;5.32;;
43363;SDS011;40636;52.424;-1.948;2022-09-09T11:53:56;9.70;;;5.95;;
43363;SDS011;40636;52.424;-1.948;2022-09-09T11:56:26;8.98;;;6.03;;
43363;SDS011;40636;52.424;-1.948;2022-09-09T12:01:56;9.35;;;4.80;;
43363;SDS011;40636;52.424;-1.948;2022-09-09T12:04:32;12.02;;;4.70;;
43363;SDS011;40636;52.424;-1.948;2022-09-09T12:13:21;8.45;;;4.60;;
43363;SDS011;40636;52.424;-1.948;2022-09-09T12:15:56;8.50;;;5.75;;
43363;SDS011;40636;52.424;-1.948;2022-09-09T12:18:34;10.35;;;4.53;;
43363;SDS011;40636;52.424;-1.948;2022-09-09T12:21:15;9.77;;;4.70;;
43363;SDS011;40636;52.424;-1.948;2022-09-09T12:31:22;11.65;;;5.53;;
43363;SDS011;40636;52.424;-1.948;2022-09-09T12:34:04;7.65;;;4.97;;
43363;SDS011;40636;52.424;-1.948;2022-09-09T12:36:36;12.90;;;6.25;;
43363;SDS011;40636;52.424;-1.948;2022-09-09T12:42:14;12.45;;;5.60;;
43363;SDS011;40636;52.424;-1.948;2022-09-09T12:44:52;11.15;;;5.95;;
43363;SDS011;40636;52.424;-1.948;2022-09-09T12:47:30;11.18;;;5.97;;
43363;SDS011;40636;52.424;-1.948;2022-09-09T12:50:02;9.65;;;5.65;;
43363;SDS011;40636;52.424;-1.948;2022-09-09T12:52:34;12.20;;;7.18;;
43363;SDS011;40636;52.424;-1.948;2022-09-09T12:55:03;11.88;;;7.25;;
43363;SDS011;40636;52.424;-1.948;2022-09-09T12:57:35;12.23;;;7.07;;
43363;SDS011;40636;52.424;-1.948;2022-09-09T13:03:16;14.68;;;7.60;;
43363;SDS011;40636;52.424;-1.948;2022-09-09T13:05:44;16.10;;;7.78;;
43363;SDS011;40636;52.424;-1.948;2022-09-09T13:08:13;10.90;;;7.15;;
43363;SDS011;40636;52.424;-1.948;2022-09-09T13:10:51;13.27;;;8.38;;
43363;SDS011;40636;52.424;-1.948;2022-09-09T13:13:38;10.82;;;7.28;;
43363;SDS011;40636;52.424;-1.948;2022-09-09T13:16:07;12.85;;;7.25;;
43363;SDS011;40636;52.424;-1.948;2022-09-09T13:18:47;12.18;;;7.00;;
43363;SDS011;40636;52.424;-1.948;2022-09-09T13:21:14;15.02;;;7.68;;
43363;SDS011;40636;52.424;-1.948;2022-09-09T13:23:41;11.23;;;6.93;;
43363;SDS011;40636;52.424;-1.948;2022-09-09T13:26:23;14.73;;;7.18;;
43363;SDS011;40636;52.424;-1.948;2022-09-09T13:28:53;13.02;;;7.28;;
43363;SDS011;40636;52.424;-1.948;2022-09-09T13:31:23;10.85;;;6.13;;
43363;SDS011;40636;52.424;-1.948;2022-09-09T13:33:54;8.57;;;5.57;;
43363;SDS011;40636;52.424;-1.948;2022-09-09T13:36:32;8.73;;;6.22;;
43363;SDS011;40636;52.424;-1.948;2022-09-09T13:39:01;9.77;;;6.25;;
43363;SDS011;40636;52.424;-1.948;2022-09-09T13:41:34;10.05;;;7.10;;
43363;SDS011;40636;52.424;-1.948;2022-09-09T13:44:02;11.65;;;6.28;;
43363;SDS011;40636;52.424;-1.948;2022-09-09T13:46:36;10.75;;;5.95;;
43363;SDS011;40636;52.424;-1.948;2022-09-09T13:51:42;9.15;;;5.63;;
43363;SDS011;40636;52.424;-1.948;2022-09-09T13:54:15;6.75;;;4.55;;
43363;SDS011;40636;52.424;-1.948;2022-09-09T13:56:42;15.13;;;5.38;;
43363;SDS011;40636;52.424;-1.948;2022-09-09T13:59:11;11.30;;;5.57;;
43363;SDS011;40636;52.424;-1.948;2022-09-09T14:01:39;7.32;;;4.85;;
43363;SDS011;40636;52.424;-1.948;2022-09-09T14:04:07;10.13;;;6.15;;
43363;SDS011;40636;52.424;-1.948;2022-09-09T14:06:38;10.43;;;6.70;;
43363;SDS011;40636;52.424;-1.948;2022-09-09T14:09:06;9.07;;;6.03;;
43363;SDS011;40636;52.424;-1.948;2022-09-09T14:11:34;9.38;;;6.15;;
43363;SDS011;40636;52.424;-1.948;2022-09-09T14:14:01;7.85;;;5.32;;
43363;SDS011;40636;52.424;-1.948;2022-09-09T14:16:28;7.72;;;4.68;;
43363;SDS011;40636;52.424;-1.948;2022-09-09T14:18:55;7.15;;;5.43;;
43363;SDS011;40636;52.424;-1.948;2022-09-09T14:21:28;7.90;;;5.03;;
43363;SDS011;40636;52.424;-1.948;2022-09-09T14:23:55;7.43;;;4.30;;
43363;SDS011;40636;52.424;-1.948;2022-09-09T14:26:24;6.07;;;4.35;;
43363;SDS011;40636;52.424;-1.948;2022-09-09T14:28:51;7.68;;;4.00;;
43363;SDS011;40636;52.424;-1.948;2022-09-09T14:31:22;5.32;;;4.25;;
43363;SDS011;40636;52.424;-1.948;2022-09-09T14:33:49;6.82;;;5.60;;
43363;SDS011;40636;52.424;-1.948;2022-09-09T14:36:17;7.88;;;5.22;;
43363;SDS011;40636;52.424;-1.948;2022-09-09T14:38:44;8.55;;;5.43;;
43363;SDS011;40636;52.424;-1.948;2022-09-09T14:41:11;6.30;;;4.35;;
43363;SDS011;40636;52.424;-1.948;2022-09-09T14:43:40;10.38;;;5.20;;
43363;SDS011;40636;52.424;-1.948;2022-09-09T14:46:08;14.13;;;4.95;;
43363;SDS011;40636;52.424;-1.948;2022-09-09T14:48:36;11.43;;;4.78;;
43363;SDS011;40636;52.424;-1.948;2022-09-09T14:51:13;10.05;;;5.03;;
43363;SDS011;40636;52.424;-1.948;2022-09-09T14:53:42;6.88;;;4.72;;
43363;SDS011;40636;52.424;-1.948;2022-09-09T14:56:11;5.13;;;3.90;;
43363;SDS011;40636;52.424;-1.948;2022-09-09T14:58:41;5.88;;;4.30;;
43363;SDS011;40636;52.424;-1.948;2022-09-09T15:01:08;6.55;;;4.05;;
43363;SDS011;40636;52.424;-1.948;2022-09-09T15:03:40;6.85;;;4.68;;
43363;SDS011;40636;52.424;-1.948;2022-09-09T15:06:15;6.63;;;3.80;;
43363;SDS011;40636;52.424;-1.948;2022-09-09T15:08:42;6.03;;;4.28;;
43363;SDS011;40636;52.424;-1.948;2022-09-09T15:11:11;6.60;;;4.22;;
43363;SDS011;40636;52.424;-1.948;2022-09-09T15:13:39;4.72;;;3.47;;
43363;SDS011;40636;52.424;-1.948;2022-09-09T15:16:17;8.15;;;3.97;;
43363;SDS011;40636;52.424;-1.948;2022-09-09T15:18:45;7.25;;;3.60;;
43363;SDS011;40636;52.424;-1.948;2022-09-09T15:21:14;3.42;;;2.75;;
43363;SDS011;40636;52.424;-1.948;2022-09-09T15:23:43;5.35;;;2.90;;
43363;SDS011;40636;52.424;-1.948;2022-09-09T15:26:10;9.60;;;2.95;;
43363;SDS011;40636;52.424;-1.948;2022-09-09T15:28:37;5.05;;;3.53;;
43363;SDS011;40636;52.424;-1.948;2022-09-09T15:31:06;10.13;;;4.45;;
43363;SDS011;40636;52.424;-1.948;2022-09-09T15:33:37;5.70;;;3.55;;
43363;SDS011;40636;52.424;-1.948;2022-09-09T15:38:41;12.60;;;4.03;;
43363;SDS011;40636;52.424;-1.948;2022-09-09T15:41:07;8.20;;;3.97;;
43363;SDS011;40636;52.424;-1.948;2022-09-09T15:43:34;6.43;;;3.65;;
43363;SDS011;40636;52.424;-1.948;2022-09-09T15:46:45;7.32;;;3.35;;
43363;SDS011;40636;52.424;-1.948;2022-09-09T15:48:55;6.45;;;3.22;;
43363;SDS011;40636;52.424;-1.948;2022-09-09T15:51:24;5.32;;;3.47;;
43363;SDS011;40636;52.424;-1.948;2022-09-09T15:54:10;6.35;;;3.85;;
43363;SDS011;40636;52.424;-1.948;2022-09-09T15:56:46;5.07;;;3.37;;
43363;SDS011;40636;52.424;-1.948;2022-09-09T15:59:16;7.85;;;3.53;;
43363;SDS011;40636;52.424;-1.948;2022-09-09T16:01:43;8.70;;;3.72;;
43363;SDS011;40636;52.424;-1.948;2022-09-09T16:04:10;4.63;;;2.72;;
43363;SDS011;40636;52.424;-1.948;2022-09-09T16:06:38;7.97;;;3.10;;
43363;SDS011;40636;52.424;-1.948;2022-09-09T16:09:06;4.05;;;2.83;;
43363;SDS011;40636;52.424;-1.948;2022-09-09T16:11:35;5.82;;;2.78;;
43363;SDS011;40636;52.424;-1.948;2022-09-09T16:14:03;5.45;;;2.83;;
43363;SDS011;40636;52.424;-1.948;2022-09-09T16:16:31;3.28;;;2.70;;
43363;SDS011;40636;52.424;-1.948;2022-09-09T16:19:05;6.38;;;2.95;;
43363;SDS011;40636;52.424;-1.948;2022-09-09T16:21:35;4.65;;;3.55;;
43363;SDS011;40636;52.424;-1.948;2022-09-09T16:24:04;4.63;;;2.92;;
43363;SDS011;40636;52.424;-1.948;2022-09-09T16:26:33;4.05;;;2.65;;
43363;SDS011;40636;52.424;-1.948;2022-09-09T16:29:02;3.28;;;2.97;;
43363;SDS011;40636;52.424;-1.948;2022-09-09T16:31:30;3.60;;;2.33;;
43363;SDS011;40636;52.424;-1.948;2022-09-09T16:33:58;4.32;;;2.88;;
43363;SDS011;40636;52.424;-1.948;2022-09-09T16:36:26;6.15;;;2.45;;
43363;SDS011;40636;52.424;-1.948;2022-09-09T16:38:55;4.45;;;2.28;;
43363;SDS011;40636;52.424;-1.948;2022-09-09T16:41:24;4.10;;;2.88;;
43363;SDS011;40636;52.424;-1.948;2022-09-09T16:43:53;3.17;;;2.15;;
43363;SDS011;40636;52.424;-1.948;2022-09-09T16:46:22;4.15;;;2.85;;
43363;SDS011;40636;52.424;-1.948;2022-09-09T16:48:51;8.35;;;2.92;;
43363;SDS011;40636;52.424;-1.948;2022-09-09T16:51:19;3.47;;;2.85;;
43363;SDS011;40636;52.424;-1.948;2022-09-09T16:53:52;7.55;;;2.78;;
43363;SDS011;40636;52.424;-1.948;2022-09-09T16:56:20;3.20;;;2.30;;
43363;SDS011;40636;52.424;-1.948;2022-09-09T16:58:56;8.38;;;2.88;;
43363;SDS011;40636;52.424;-1.948;2022-09-09T17:01:25;5.78;;;2.60;;
43363;SDS011;40636;52.424;-1.948;2022-09-09T17:03:54;2.45;;;2.10;;
43363;SDS011;40636;52.424;-1.948;2022-09-09T17:06:26;4.88;;;2.35;;
43363;SDS011;40636;52.424;-1.948;2022-09-09T17:08:59;4.22;;;2.05;;
43363;SDS011;40636;52.424;-1.948;2022-09-09T17:11:27;3.80;;;2.10;;
43363;SDS011;40636;52.424;-1.948;2022-09-09T17:13:56;5.05;;;2.00;;
43363;SDS011;40636;52.424;-1.948;2022-09-09T17:16:25;3.15;;;2.53;;
43363;SDS011;40636;52.424;-1.948;2022-09-09T17:18:56;3.65;;;2.38;;
43363;SDS011;40636;52.424;-1.948;2022-09-09T17:21:25;3.60;;;1.80;;
43363;SDS011;40636;52.424;-1.948;2022-09-09T17:23:53;3.65;;;2.63;;
43363;SDS011;40636;52.424;-1.948;2022-09-09T17:26:23;7.95;;;2.35;;
43363;SDS011;40636;52.424;-1.948;2022-09-09T17:29:11;4.45;;;2.22;;